METAR Data
IDs: Format: Raw Decoded Include TAF

Data at: 1627 UTC 24 Aug 2019

PALH 241553Z 00000KT 10SM CLR 09/05 A2966 RMK AO2 SLP044 T00890050
PALH 241453Z 00000KT 10SM CLR 09/07 A2964 RMK AO2 SLP038 T00890067 51011
PALH 241353Z 00000KT 10SM CLR 09/06 A2963 RMK AO2 SLP033 T00890061
PALH 241253Z 00000KT 10SM SCT100 09/05 A2962 RMK AO2 SLP032 T00940050
PALH 241153Z 30004KT 10SM BKN090 10/04 A2961 RMK AO2 SLP026 T01000044 10156 20100 52007
PALH 241053Z 35005KT 10SM CLR 12/04 A2960 RMK AO2 SLP024 T01220039
PALH 240953Z 04005KT 10SM CLR 12/04 A2959 RMK AO2 SLP021 T01220039
PALH 240853Z 00000KT 10SM CLR 12/08 A2959 RMK AO2 SLP019 T01170083 402060094 52014
PALH 240753Z 00000KT 10SM FEW110 13/08 A2957 RMK AO2 SLP015 T01330078
PALH 240653Z 19003KT 10SM OVC100 15/06 A2956 RMK AO2 SLP010 T01500061
PALH 240553Z 00000KT 10SM CLR 16/07 A2955 RMK AO2 SLP006 T01560072 10206 20156 53009
PALH 240453Z 32005KT 10SM CLR 17/06 A2953 RMK AO2 SLP001 T01720061
PALH 240353Z VRB03KT 10SM CLR 18/07 A2952 RMK AO2 SLP997 T01830072
PALH 240253Z 28005KT 10SM CLR 20/07 A2952 RMK AO2 SLP997 T02000067 58003
PALH 240153Z 27007KT 10SM CLR 20/06 A2952 RMK AO2 SLP998 T02000061
PALH 240053Z 24004KT 7SM CLR 20/09 A2952 RMK AO2 SLP999 T02000089
PALH 232353Z 32005KT 7SM CLR 19/08 A2953 RMK AO2 SLP999 T01940083 10194 20144 58007
PALH 232253Z 01004KT 8SM CLR 19/07 A2954 RMK AO2 SLP003 T01940072
PALH 232153Z VRB03KT 6SM HZ CLR 18/07 A2954 RMK AO2 SLP005 T01830072
PALH 232053Z 31005KT 4SM HZ CLR 16/09 A2955 RMK AO2 SLP007 T01610094 58003
PALH 231953Z 32004KT 4SM HZ CLR 16/10 A2956 RMK AO2 SLP009 T01610100
PALH 231853Z 00000KT 3SM HZ CLR 15/09 A2956 RMK AO2 SFC VIS 4 SLP010 T01500089
PALH 231812Z VRB04KT 3SM HZ SCT085 14/08 A2956 RMK AO2 T01440083
PALH 231753Z VRB04KT 2 1/2SM HZ FEW027 BKN085 14/08 A2956 RMK AO2 TWR VIS 3 SLP010 T01440078 10150 20111 58002
PALH 231653Z 00000KT 2SM HZ FEW095 13/06 A2957 RMK AO2 SLP013 T01330061
PALH 231615Z 20004KT 2SM HZ CLR 13/06 A2957 RMK AO2 TWR VIS 3 T01280061
PALH 231553Z 22004KT 1 3/4SM HZ CLR 12/06 A2957 RMK AO2 TWR VIS 3 SLP013 T01220056
PALH 231542Z 22004KT 1 3/4SM HZ CLR 12/06 A2957 RMK AO2 TWR VIS 3 T01220056
PALH 231520Z 24003KT 2SM HZ FEW110 12/05 A2957 RMK AO2 TWR VIS 3 T01170050
PALH 231453Z 18004KT 1 3/4SM HZ CLR 11/05 A2957 RMK AO2 TWR VIS 2 SLP013 T01110050 52005
PALH 231439Z 19003KT 1 3/4SM HZ CLR 12/05 A2957 RMK AO2 TWR VIS 2 T01170050
PALH 231418Z 19003KT 2SM HZ SCT017 12/06 A2956 RMK AO2 T01170056 $
PALH 231411Z 20004KT 2SM HZ BKN016 12/05 A2956 RMK AO2 T01170050 $
PALH 231353Z 20003KT 2SM HZ BKN014 12/05 A2956 RMK AO2 SLP010 T01220050 $
PALH 231348Z 21004KT 2SM HZ BKN014 12/05 A2956 RMK AO2 $
PALH 231316Z VRB04KT 2 1/2SM HZ CLR 12/06 A2955 RMK AO2 T01220056 $
PALH 231253Z 19004KT 3SM HZ CLR 12/06 A2955 RMK AO2 SLP008 T01220061 $
PALH 231153Z 20005KT 3SM HZ CLR 12/07 A2955 RMK AO2 SLP007 T01170072 10150 20094 58004 $
PALH 231116Z 20005KT 3SM HZ CLR 12/07 A2956 RMK AO2 T01170072 $
PALH 231100Z 19007KT 2 1/2SM HZ SCT014 12/07 A2956 RMK AO2 T01170067 $
PALH 231053Z 18005KT 2SM HZ BKN014 12/06 A2956 RMK AO2 SLP010 T01170061 $
PALH 231049Z 18007KT 2SM HZ BKN013 12/06 A2956 RMK AO2 $
PALH 231034Z 18006KT 1 3/4SM HZ FEW008 OVC012 12/05 A2956 RMK AO2 T01220050 $
PALH 231024Z 18006KT 2 1/2SM HZ FEW008 BKN012 12/04 A2956 RMK AO2 T01170044 $
PALH 231016Z 18003KT 8SM FEW009 SCT012 10/04 A2957 RMK AO2 T01000039 $
PALH 230953Z 13003KT 10SM CLR 11/04 A2956 RMK AO2 SLP011 T01060039 $
PALH 230853Z 00000KT 10SM CLR 11/04 A2956 RMK AO2 SLP011 T01060044 402110078 53002 $
PALH 230753Z 00000KT 10SM CLR 11/05 A2956 RMK AO2 SLP010 T01060050 $
PALH 230653Z 00000KT 10SM CLR 12/08 A2956 RMK AO2 SLP009 T01220078 $
PALH 230553Z 18004KT 10SM CLR 15/04 A2956 RMK AO2 SLP010 T01500044 10211 20150 56005 $
PALH 230453Z 18003KT 10SM CLR 17/03 A2956 RMK AO2 SLP010 T01670028 $